Good Hart, Michigan
Current Conditions -  °F | °C
As of 7:15 PM on Wednesday 28 Jan 2015 (Local Time) from KMGN Reporting Station
Broken Clouds Broken Clouds  
Wind Chill: 27°   Ceiling: 10000
Heat Index: 27°   Visibility: 10mi
Dew Point:   Wind: 3mph
Humidity: 45%   Direction: 70°ENE
Pressure: 30.07"   Gusts: NA
Location:  45.57°N, 85.11°W
Report Text: KMGN 290015Z AUTO 07003KT 10SM BKN100 BKN120 M02/M13 A3007 RMK AO2 T10281134
Loading
Personal Weather Stations






























Interactive Weather Map New forecast layout! Learn more

10-Day Weather Forecast

Advertisements
Track Severe Weather on mobile